• Join FlightAware (Why Join?)
  • Login
  • US Flag 
03:28AM EDT


 

Airport Tracker/Info


-or-


 

Live Flight TrackerFlight Track Log ✈ N531QS ✈ 09-Jun-2013 ✈ KIAD - KTEB

Flight Track Log - Related Links

Times and Time Zones

All times are in EDT time to prevent confusion due to time zone crossing. See the N531QS flight status page for this flight to view local times or setup timezone preferences in your user account.

Time Position Orientation Groundspeed Altitude Reporting Facility
EDT Latitude Longitude Course Direction KTS MPH feet Rate Location/Type
08:20PM 39.0333 -77.6000 322° Northwest 290 334 5,000  Level Potomac TRACON
08:20PM 39.0833 -77.5500 38° Northeast 289 333 5,900 1,920 Climbing Potomac TRACON
08:21PM 39.1333 -77.4667 52° Northeast 300 345 8,700 1,500 Climbing Potomac TRACON
08:23PM 39.1667 -77.3667 67° East 306 352 9,000 120 Climbing Potomac TRACON
08:24PM 39.3332 -77.0328 104° East  Level FlightAware Approximate
08:24PM 39.2167 -77.2833 52° Northeast 300 345 9,000  Level Potomac TRACON
08:25PM 39.2806 -77.1494 58° Northeast 304 350 9,300 1,560 Climbing Washington Center
08:26PM 39.3297 -77.0511 57° Northeast 304 350 13,100 2,940 Climbing Washington Center
08:27PM 39.3147 -76.9194 98° East 320 368 15,200 1,980 Climbing Washington Center
08:28PM 39.2767 -76.7686 108° East 369 425 17,000 900 Climbing Washington Center
08:29PM 39.2444 -76.6206 106° East 406 467 17,000  Level Washington Center
08:30PM 39.2436 -76.4625 90° East 427 491 17,000  Level Washington Center
08:31PM 39.2511 -76.3044 86° East 432 497 17,000  Level Washington Center
08:32PM 39.2894 -76.1439 73° East 432 497 17,000  Level Washington Center
08:33PM 39.3503 -76.0264 56° Northeast 404 465 17,000  Level Washington Center
08:34PM 39.4317 -75.9381 40° Northeast 382 440 17,000  Level Washington Center
08:36PM 39.5833 -75.8000 35° Northeast 386 444 17,000 -600 Level Philadelphia TRACON
08:37PM 39.6667 -75.7167 38° Northeast 375 432 15,400 -1,740 Descending Philadelphia TRACON
08:38PM 39.7500 -75.6500 32° Northeast 363 418 13,800 -1,260 Descending Philadelphia TRACON
08:39PM 39.8333 -75.5667 38° Northeast 342 394 13,000 -420 Descending Philadelphia TRACON
08:40PM 39.9000 -75.5000 37° Northeast 347 399 13,000  Level Philadelphia TRACON
08:41PM 39.9833 -75.4333 32° Northeast 348 400 13,000  Level Philadelphia TRACON
08:42PM 40.0667 -75.3500 37° Northeast 350 403 13,000  Level Philadelphia TRACON
08:43PM 40.1500 -75.2833 31° Northeast 351 404 13,000 -660 Level Philadelphia TRACON
08:44PM 40.2167 -75.2000 44° Northeast 335 386 11,700 -1,620 Descending Philadelphia TRACON
08:46PM 40.3667 -75.0667 34° Northeast 295 339 8,100 -1,620 Descending New York TRACON
08:47PM 40.4167 -74.9833 52° Northeast 297 342 6,800 -1,260 Descending New York TRACON
08:48PM 40.4667 -74.9000 52° Northeast 283 326 5,600 -1,200 Descending New York TRACON
08:49PM 40.5167 -74.8333 45° Northeast 275 316 4,400 -840 Descending New York TRACON
08:50PM 40.5667 -74.7667 45° Northeast 272 313 4,000 -240 Descending New York TRACON
08:51PM 40.6333 -74.7000 37° Northeast 274 315 4,000  Level New York TRACON
08:52PM 40.7000 -74.6500 30° Northeast 272 313 4,000  Level New York TRACON
08:53PM 40.7667 -74.6167 21° North 273 314 4,000  Level New York TRACON
08:54PM 40.8333 -74.5667 30° Northeast 270 311 4,000 -120 Level New York TRACON
08:55PM 40.9000 -74.5167 30° Northeast 274 315 3,800 -540 Descending New York TRACON
08:56PM 40.9500 -74.4333 52° Northeast 271 312 3,000 -900 Descending New York TRACON
08:57PM 40.9833 -74.3500 62° Northeast 261 300 2,000 -540 Descending New York TRACON
08:58PM 41.0000 -74.2833 72° East 216 249 2,000  Level New York TRACON
08:59PM 41.0167 -74.2167 72° East 221 254 2,000  Level New York TRACON
09:00PM 41.0167 -74.1333 90° East 216 249 2,000  Level New York TRACON
09:01PM 41.0000 -74.0667 108° East 195 224 2,000 -60 Level New York TRACON
09:02PM 40.9500 -74.0500 166° South 177 204 1,900 -480 Descending New York TRACON
09:03PM 40.9167 -74.0500 180° South 145 167 1,100 -780 Descending New York TRACON
09:04PM 40.8667 -74.0500 180° South 121 139 400 -720 Descending New York TRACON
09:06PM 40.8500 -74.0500 175° South  Level FlightAware Approximate
09:13PM 40.8501 -74.0608 175° South  Level Estimated